createdAt,value
2023-03-16T00:02:35.120Z,21.2
2023-03-16T00:08:29.047Z,21
2023-03-16T00:14:07.428Z,20.8
2023-03-16T00:19:46.237Z,20.7
2023-03-16T00:25:23.346Z,21.8
2023-03-16T00:30:46.395Z,23.1
2023-03-16T00:36:39.787Z,23
2023-03-16T00:42:32.173Z,22.1
2023-03-16T00:48:26.384Z,21.6
2023-03-16T00:53:48.521Z,21.3
2023-03-16T00:59:41.777Z,21.1
2023-03-16T01:05:19.159Z,20.9
2023-03-16T01:10:56.673Z,20.8
2023-03-16T01:16:17.818Z,21.4
2023-03-16T01:21:39.422Z,22.9
2023-03-16T01:27:16.521Z,23.1
2023-03-16T01:32:54.611Z,22.3
2023-03-16T01:38:47.878Z,21.6
2023-03-16T01:44:40.298Z,21.3
2023-03-16T01:49:48.514Z,21.1
2023-03-16T01:55:41.508Z,21
2023-03-16T02:01:19.203Z,20.8
2023-03-16T02:06:26.501Z,21
2023-03-16T02:12:20.504Z,22.4
2023-03-16T02:18:14.218Z,21.6
2023-03-16T02:23:51.790Z,19.9
2023-03-16T02:29:45.170Z,22.3
2023-03-16T02:35:38.866Z,23.3
2023-03-16T02:41:16.797Z,22.3
2023-03-16T02:46:55.180Z,21.7
2023-03-16T02:52:48.604Z,21.3
2023-03-16T03:03:35.192Z,20.9
2023-03-16T03:09:27.699Z,20.8
2023-03-16T03:15:19.655Z,20.8
2023-03-16T03:21:12.295Z,22.6
2023-03-16T03:26:49.729Z,23.3
2023-03-16T03:32:42.413Z,22.3
2023-03-16T03:38:05.077Z,21.6
2023-03-16T03:43:57.856Z,21.4
2023-03-16T03:54:26.545Z,20.9
2023-03-16T04:00:06.834Z,20.8
2023-03-16T04:06:00.576Z,20.6
2023-03-16T04:11:38.368Z,22.1
2023-03-16T04:17:31.869Z,23.1
2023-03-16T04:22:53.366Z,22.6
2023-03-16T04:28:16.695Z,21.9
2023-03-16T04:33:54.077Z,21.3
2023-03-16T04:45:25.012Z,20.9
2023-03-16T04:50:47.830Z,20.8
2023-03-16T04:56:40.724Z,20.6
2023-03-16T05:02:34.204Z,21.7
2023-03-16T05:08:32.876Z,22.9
2023-03-16T05:13:38.533Z,22.8
2023-03-16T05:19:32.322Z,22
2023-03-16T05:25:24.907Z,21.4
2023-03-16T05:31:03.137Z,21.1
2023-03-16T05:36:28.670Z,20.9
2023-03-16T05:42:21.528Z,20.8
2023-03-16T05:48:00.203Z,20.6
2023-03-16T05:53:38.481Z,21.1
2023-03-16T05:59:32.238Z,22.1
2023-03-16T06:05:25.993Z,22
2023-03-16T06:11:19.857Z,19.3
2023-03-16T06:17:12.767Z,20.1
2023-03-16T06:23:04.211Z,22.2
2023-03-16T06:28:59.389Z,22.6
2023-03-16T06:34:54.750Z,21.8
2023-03-16T06:40:47.730Z,21.3
2023-03-16T06:46:28.649Z,21.1
2023-03-16T06:52:23.120Z,20.9
2023-03-16T06:58:00.129Z,20.7
2023-03-16T07:03:52.818Z,20.6
2023-03-16T07:09:46.121Z,21.3
2023-03-16T07:15:42.537Z,22.4
2023-03-16T07:21:36.982Z,22.6
2023-03-16T07:27:30.322Z,22
2023-03-16T07:33:44.541Z,21.4
2023-03-16T07:39:38.315Z,21.1
2023-03-16T07:45:00.089Z,20.9
2023-03-16T07:50:36.840Z,20.6
2023-03-16T07:56:45.967Z,20.3
2023-03-16T08:02:41.385Z,21.3
2023-03-16T08:08:34.728Z,22.3
2023-03-16T08:14:15.750Z,22.1
2023-03-16T08:20:09.004Z,21.3
2023-03-16T08:26:13.576Z,20.9
2023-03-16T08:32:08.243Z,20.6
2023-03-16T08:37:31.465Z,20.4
2023-03-16T08:43:20.639Z,20.6
2023-03-16T08:49:14.788Z,22
2023-03-16T08:55:02.200Z,22.5
2023-03-16T09:01:08.105Z,21.6
2023-03-16T09:07:09.176Z,21.1
2023-03-16T09:12:47.627Z,20.8
2023-03-16T09:18:41.040Z,20.6
2023-03-16T09:24:36.388Z,20.1
2023-03-16T09:30:33.141Z,21.3
2023-03-16T09:36:12.419Z,21.9
2023-03-16T09:42:09.505Z,21.3
2023-03-16T09:47:46.806Z,20.8
2023-03-16T09:53:02.092Z,20.3
2023-03-16T09:58:54.670Z,20.2
2023-03-16T10:04:32.729Z,20
2023-03-16T10:10:24.688Z,20.6
2023-03-16T10:16:17.968Z,21.8
2023-03-16T10:22:10.766Z,21.8
2023-03-16T10:33:27.458Z,20.6
2023-03-16T10:39:21.156Z,20.3
2023-03-16T10:45:13.965Z,20
2023-03-16T10:51:09.311Z,19.8
2023-03-16T10:57:02.672Z,21.3
2023-03-16T11:02:55.571Z,22.3
2023-03-16T11:08:49.671Z,21.4
2023-03-16T11:14:56.183Z,20.7
2023-03-16T11:21:00.100Z,20.4
2023-03-16T11:26:52.363Z,20.3
2023-03-16T11:32:48.079Z,20.1
2023-03-16T11:38:57.814Z,21.2
2023-03-16T11:44:34.804Z,22.1
2023-03-16T11:50:27.720Z,21.5
2023-03-16T11:56:19.632Z,21
2023-03-16T12:02:16.679Z,20.8
2023-03-16T12:08:20.086Z,20.4
2023-03-16T12:13:57.493Z,20.2
2023-03-16T12:20:07.355Z,20.9
2023-03-16T12:26:00.917Z,22.1
2023-03-16T12:31:37.865Z,21.6
2023-03-16T12:37:30.634Z,21.1
2023-03-16T12:43:23.451Z,20.6
2023-03-16T12:49:00.360Z,20.4
2023-03-16T12:54:40.640Z,20.3
2023-03-16T13:00:03.438Z,20.5
2023-03-16T13:05:42.238Z,21.4
2023-03-16T13:11:23.531Z,22.1
2023-03-16T13:17:02.463Z,21.4
2023-03-16T13:23:14.496Z,20.9
2023-03-16T13:28:52.397Z,20.6
2023-03-16T13:34:14.898Z,20.4
2023-03-16T13:39:21.917Z,20.1
2023-03-16T13:45:03.402Z,20.1
2023-03-16T13:50:40.546Z,20.1
2023-03-16T13:56:16.938Z,19.9
2023-03-16T14:01:55.269Z,19.8
2023-03-16T14:07:33.354Z,19.8
2023-03-16T14:13:30.181Z,19.7
2023-03-16T14:19:27.822Z,19.6
2023-03-16T14:25:28.457Z,20.3
2023-03-16T14:31:21.874Z,23.8
2023-03-16T14:37:00.979Z,24.6
2023-03-16T14:42:54.379Z,24.8
2023-03-16T14:48:47.974Z,25.2
2023-03-16T14:54:25.207Z,25.4
2023-03-16T15:00:18.790Z,25.1
2023-03-16T15:06:29.936Z,26.2
2023-03-16T15:12:24.616Z,26.5
2023-03-16T15:18:02.713Z,27.8
2023-03-16T15:23:54.272Z,28.6
2023-03-16T15:29:32.032Z,29.2
2023-03-16T15:35:09.531Z,29.4
2023-03-16T15:41:03.061Z,29.2
2023-03-16T15:47:07.294Z,28.7
2023-03-16T15:53:07.020Z,28.1
2023-03-16T15:59:21.744Z,28.4
2023-03-16T16:04:59.324Z,28.4
2023-03-16T16:10:20.760Z,30.1
2023-03-16T16:16:12.430Z,30.3
2023-03-16T16:22:19.061Z,29.9
2023-03-16T16:28:11.878Z,29
2023-03-16T16:33:19.147Z,28.9
2023-03-16T16:38:37.712Z,27.8
2023-03-16T16:48:37.386Z,28.4
2023-03-16T16:53:58.981Z,28.3
2023-03-16T16:59:48.096Z,28.8
2023-03-16T17:04:57.147Z,29.4
2023-03-16T17:10:19.842Z,29.2
2023-03-16T17:15:42.463Z,27.6
2023-03-16T17:21:36.633Z,27.3
2023-03-16T17:32:38.042Z,28.5
2023-03-16T17:38:16.378Z,28.8
2023-03-16T17:43:59.802Z,27.9
2023-03-16T17:49:52.794Z,28.4
2023-03-16T17:55:45.636Z,28.1
2023-03-16T18:01:08.316Z,27.9
2023-03-16T18:07:04.315Z,29.8
2023-03-16T18:12:42.176Z,28.8
2023-03-16T18:18:05.029Z,28.9
2023-03-16T18:23:43.325Z,28.2
2023-03-16T18:29:38.032Z,27.9
2023-03-16T18:35:31.809Z,28.5
2023-03-16T18:41:09.395Z,28.3
2023-03-16T18:47:02.508Z,28.9
2023-03-16T18:52:40.819Z,28
2023-03-16T18:58:18.890Z,28.6
2023-03-16T19:08:49.699Z,28.6
2023-03-16T19:14:27.828Z,28.7
2023-03-16T19:20:05.402Z,29.2
2023-03-16T19:25:27.310Z,28.6
2023-03-16T19:31:05.798Z,28.7
2023-03-16T19:36:56.879Z,28.5
2023-03-16T19:42:34.849Z,28.4
2023-03-16T19:48:28.400Z,28.3
2023-03-16T19:54:20.886Z,28.1
2023-03-16T20:00:13.817Z,26.2
2023-03-16T20:06:07.794Z,25.8
2023-03-16T20:11:45.727Z,25.9
2023-03-16T20:17:24.075Z,25.6
2023-03-16T20:22:46.848Z,25.5
2023-03-16T20:28:23.436Z,26.1
2023-03-16T20:34:16.653Z,26.3
2023-03-16T20:39:55.298Z,25.4
2023-03-16T20:45:33.575Z,25.1
2023-03-16T20:50:55.003Z,25
2023-03-16T20:56:32.456Z,24.9
2023-03-16T21:02:25.628Z,24.4
2023-03-16T21:08:18.932Z,24.4
2023-03-16T21:14:05.646Z,24.8
2023-03-16T21:19:43.402Z,24.4
2023-03-16T21:25:36.697Z,24.3
2023-03-16T21:31:30.438Z,25
2023-03-16T21:37:23.163Z,25.2
2023-03-16T21:43:18.004Z,25.2
2023-03-16T21:49:12.055Z,24.9
2023-03-16T21:54:49.160Z,23.1
2023-03-16T22:00:29.905Z,22.6
2023-03-16T22:06:35.590Z,22.1
2023-03-16T22:12:12.996Z,21.8
2023-03-16T22:18:06.032Z,21.4
2023-03-16T22:29:21.629Z,21
2023-03-16T22:35:13.949Z,20.8
2023-03-16T22:41:07.557Z,20.4
2023-03-16T22:46:43.768Z,20.3
2023-03-16T22:52:36.789Z,20.4
2023-03-16T22:58:30.855Z,21.9
2023-03-16T23:04:24.334Z,22.8
2023-03-16T23:10:17.518Z,22.4
2023-03-16T23:15:57.396Z,22.1
2023-03-16T23:22:03.911Z,21.8
2023-03-16T23:27:48.538Z,21.6
2023-03-16T23:33:27.069Z,21.4
2023-03-16T23:39:03.993Z,21.3
2023-03-16T23:44:41.789Z,21.2
2023-03-16T23:55:56.518Z,21.8
